Time;durP1;ratioP1;P1;durP2;ratioP2;P2;SDS_P1;SDS_P2;PMS_P1;PMS_P2;Temp;Humidity;BMP_temperature;BMP_pressure;BME280_temperature;BME280_humidity;BME280_pressure;Samples;Min_cycle;Max_cycle;Signal;HPM_P1;HPM_P2
2023/10/09 00:01:01;;;;;;;21.98;4.15;;;;;;;;;;4988665;28;20030;-81
2023/10/09 00:03:27;;;;;;;12.43;3.43;;;;;;;;;;4991777;28;20035;-80
2023/10/09 00:05:53;;;;;;;17.85;3.20;;;;;;;;;;4989171;28;20367;-82
2023/10/09 00:08:39;;;;;;;22.30;3.35;;;;;;;;;;4989877;28;20062;-82
2023/10/09 00:11:15;;;;;;;15.90;3.13;;;;;;;;;;4990308;28;20073;-82
2023/10/09 00:13:50;;;;;;;22.33;3.13;;;;;;;;;;4986780;28;20061;-83
2023/10/09 00:16:24;;;;;;;16.10;3.47;;;;;;;;;;4991112;28;20058;-81
2023/10/09 00:18:50;;;;;;;22.92;3.25;;;;;;;;;;4990388;28;20034;-81
2023/10/09 00:21:20;;;;;;;22.20;2.80;;;;;;;;;;4984993;28;20026;-82
2023/10/09 00:23:52;;;;;;;11.25;2.70;;;;;;;;;;4988688;28;20032;-82
2023/10/09 00:26:17;;;;;;;13.77;2.50;;;;;;;;;;4992290;28;20118;-81
2023/10/09 00:28:47;;;;;;;19.92;3.45;;;;;;;;;;4991538;28;20061;-82
2023/10/09 00:31:15;;;;;;;18.90;3.15;;;;;;;;;;4990170;28;20096;-81
2023/10/09 00:33:44;;;;;;;18.33;4.30;;;;;;;;;;4992426;28;20046;-82
2023/10/09 00:36:11;;;;;;;20.10;3.22;;;;;;;;;;4990618;28;20038;-81
2023/10/09 00:38:51;;;;;;;16.55;3.35;;;;;;;;;;4991063;28;20022;-78
2023/10/09 00:41:25;;;;;;;19.58;3.28;;;;;;;;;;4991350;28;20040;-81
2023/10/09 00:43:51;;;;;;;;;;;;;;;;;;4991204;28;20406;-80
2023/10/09 00:48:47;;;;;;;16.08;3.13;;;;;;;;;;4992052;28;20027;-81
2023/10/09 00:51:16;;;;;;;9.63;3.30;;;;;;;;;;4994172;28;20061;-81
2023/10/09 00:53:50;;;;;;;17.48;3.15;;;;;;;;;;4995883;28;20826;-80
2023/10/09 00:56:19;;;;;;;21.83;2.83;;;;;;;;;;4989078;28;20038;-82
2023/10/09 00:58:54;;;;;;;14.40;3.65;;;;;;;;;;4984337;28;20043;-81
2023/10/09 01:01:26;;;;;;;19.92;3.88;;;;;;;;;;4969840;28;20132;-82
2023/10/09 01:03:51;;;;;;;15.90;2.92;;;;;;;;;;4976811;28;20034;-82
2023/10/09 01:06:20;;;;;;;20.33;3.25;;;;;;;;;;4971551;28;20038;-81
2023/10/09 01:08:56;;;;;;;19.75;3.60;;;;;;;;;;4987495;28;20029;-81
2023/10/09 01:11:23;;;;;;;10.18;3.05;;;;;;;;;;4995234;28;20034;-81
2023/10/09 01:16:16;;;;;;;20.60;2.70;;;;;;;;;;4992230;28;20070;-83
2023/10/09 01:18:49;;;;;;;26.98;3.10;;;;;;;;;;4992794;28;20085;-80
2023/10/09 01:21:15;;;;;;;17.23;3.58;;;;;;;;;;4990332;28;20027;-78
2023/10/09 01:24:03;;;;;;;7.20;2.20;;;;;;;;;;4996330;28;20126;-80
2023/10/09 01:26:46;;;;;;;16.85;2.88;;;;;;;;;;4992916;28;20100;-82
2023/10/09 01:29:21;;;;;;;19.85;3.60;;;;;;;;;;4992446;28;20043;-83
2023/10/09 01:31:56;;;;;;;20.08;3.55;;;;;;;;;;4992588;28;20065;-81
2023/10/09 01:34:27;;;;;;;;;;;;;;;;;;4985054;28;20058;-82
2023/10/09 01:36:55;;;;;;;23.00;3.37;;;;;;;;;;4989360;28;19921;-83
2023/10/09 01:39:27;;;;;;;20.90;3.42;;;;;;;;;;4994116;28;20039;-81
2023/10/09 01:42:05;;;;;;;13.13;3.63;;;;;;;;;;4994674;28;20078;-82
2023/10/09 01:44:34;;;;;;;12.27;2.72;;;;;;;;;;4992665;28;20042;-82
2023/10/09 01:47:06;;;;;;;19.38;3.40;;;;;;;;;;4990244;28;20046;-82
2023/10/09 01:49:32;;;;;;;12.57;2.90;;;;;;;;;;4994724;28;20030;-81
2023/10/09 01:52:09;;;;;;;10.38;2.80;;;;;;;;;;4994177;28;20053;-81
2023/10/09 01:54:38;;;;;;;22.00;3.90;;;;;;;;;;4994449;28;20034;-83
2023/10/09 01:57:29;;;;;;;17.67;3.05;;;;;;;;;;4993306;28;20038;-81
2023/10/09 01:59:57;;;;;;;14.90;3.05;;;;;;;;;;4995398;28;20023;-81
2023/10/09 02:02:25;;;;;;;26.65;4.63;;;;;;;;;;4990599;28;20492;-82
2023/10/09 02:05:07;;;;;;;12.48;2.80;;;;;;;;;;4989413;28;20113;-82
2023/10/09 02:07:51;;;;;;;26.60;3.38;;;;;;;;;;4990929;28;20038;-81
2023/10/09 02:13:10;;;;;;;24.40;3.30;;;;;;;;;;4994327;28;20043;-82
2023/10/09 02:21:00;;;;;;;19.30;3.00;;;;;;;;;;4970287;28;20019;-81
2023/10/09 02:26:32;;;;;;;19.98;2.80;;;;;;;;;;4991166;28;20038;-82
2023/10/09 02:29:15;;;;;;;16.50;2.88;;;;;;;;;;4980602;28;20122;-82
2023/10/09 02:31:41;;;;;;;11.77;3.10;;;;;;;;;;4985756;28;20051;-82
2023/10/09 02:34:08;;;;;;;18.00;2.72;;;;;;;;;;4994973;28;20529;-82
2023/10/09 02:36:43;;;;;;;10.38;2.70;;;;;;;;;;4991079;28;20039;-82
2023/10/09 02:39:23;;;;;;;13.80;3.17;;;;;;;;;;4987548;28;20019;-82
2023/10/09 02:41:50;;;;;;;16.55;2.50;;;;;;;;;;4994468;28;20034;-80
2023/10/09 02:44:15;;;;;;;20.08;3.25;;;;;;;;;;4988956;28;20574;-83
2023/10/09 02:46:41;;;;;;;12.98;2.45;;;;;;;;;;5065194;23;20137;-76
2023/10/09 02:49:07;;;;;;;14.70;3.00;;;;;;;;;;5029688;28;20057;-74
2023/10/09 02:51:41;;;;;;;10.55;2.70;;;;;;;;;;5027762;28;20033;-76
2023/10/09 02:54:26;;;;;;;12.68;3.00;;;;;;;;;;5034965;28;20018;-78
2023/10/09 02:57:07;;;;;;;23.85;2.70;;;;;;;;;;5026161;28;20014;-77
2023/10/09 02:59:38;;;;;;;17.73;3.03;;;;;;;;;;5027019;28;20477;-77
2023/10/09 03:02:03;;;;;;;10.38;3.35;;;;;;;;;;5025859;28;20029;-75
2023/10/09 03:04:32;;;;;;;17.83;3.03;;;;;;;;;;5023554;28;20535;-77
2023/10/09 03:06:58;;;;;;;15.35;2.40;;;;;;;;;;5025651;28;20037;-76
2023/10/09 03:09:27;;;;;;;18.63;2.30;;;;;;;;;;5024907;28;20092;-76
2023/10/09 03:12:02;;;;;;;19.67;3.00;;;;;;;;;;5023386;28;20353;-76
2023/10/09 03:14:30;;;;;;;21.23;3.45;;;;;;;;;;5012531;28;20042;-75
2023/10/09 03:16:56;;;;;;;17.92;2.80;;;;;;;;;;5023450;28;20096;-76
2023/10/09 03:19:22;;;;;;;14.70;2.80;;;;;;;;;;5025317;28;20669;-77
2023/10/09 03:21:48;;;;;;;25.13;3.83;;;;;;;;;;5026170;28;20068;-77
2023/10/09 03:24:13;;;;;;;15.90;2.92;;;;;;;;;;5024393;28;20053;-76
2023/10/09 03:26:38;;;;;;;18.45;3.17;;;;;;;;;;5026295;28;20060;-75
2023/10/09 03:29:10;;;;;;;16.85;3.35;;;;;;;;;;5023671;28;20033;-77
2023/10/09 03:31:36;;;;;;;11.20;2.30;;;;;;;;;;5023179;28;20026;-77
2023/10/09 03:34:02;;;;;;;10.05;2.88;;;;;;;;;;5026241;28;20029;-76
2023/10/09 03:36:30;;;;;;;16.35;2.58;;;;;;;;;;5026221;28;20037;-75
2023/10/09 03:38:57;;;;;;;12.73;2.50;;;;;;;;;;5023543;28;20099;-75
2023/10/09 03:41:29;;;;;;;14.15;3.85;;;;;;;;;;5019595;28;20030;-75
2023/10/09 03:43:54;;;;;;;17.17;3.08;;;;;;;;;;5022890;28;20047;-75
2023/10/09 03:46:32;;;;;;;8.80;1.98;;;;;;;;;;5033349;28;20029;-75
2023/10/09 03:49:00;;;;;;;14.98;2.72;;;;;;;;;;5040714;28;20029;-75
2023/10/09 03:51:27;;;;;;;17.67;3.20;;;;;;;;;;5041991;28;20045;-75
2023/10/09 03:53:55;;;;;;;12.82;2.58;;;;;;;;;;5043666;28;20032;-75
2023/10/09 03:56:21;;;;;;;15.88;2.70;;;;;;;;;;5026037;28;20031;-76
2023/10/09 03:58:49;;;;;;;18.17;2.80;;;;;;;;;;5043945;28;20117;-75
2023/10/09 04:01:27;;;;;;;12.63;3.00;;;;;;;;;;5043289;28;20033;-75
2023/10/09 04:03:55;;;;;;;10.13;2.78;;;;;;;;;;5024074;28;20505;-75
2023/10/09 04:06:28;;;;;;;23.92;3.25;;;;;;;;;;5043804;28;21077;-76
2023/10/09 04:08:54;;;;;;;10.25;2.75;;;;;;;;;;5043519;28;20472;-76
2023/10/09 04:11:22;;;;;;;11.00;2.55;;;;;;;;;;5042727;28;20128;-76
2023/10/09 04:13:49;;;;;;;15.80;2.45;;;;;;;;;;5023693;28;20110;-76
2023/10/09 04:18:56;;;;;;;9.98;2.20;;;;;;;;;;5043682;28;20041;-76
2023/10/09 04:21:35;;;;;;;10.98;2.65;;;;;;;;;;5047190;28;20029;-76
2023/10/09 04:26:46;;;;;;;9.30;2.50;;;;;;;;;;5049048;28;20029;-76
2023/10/09 04:29:26;;;;;;;13.38;2.55;;;;;;;;;;5046262;28;20121;-76
2023/10/09 04:31:56;;;;;;;10.80;2.35;;;;;;;;;;5044158;28;20094;-77
2023/10/09 04:34:23;;;;;;;18.05;2.92;;;;;;;;;;5044989;28;20518;-76
2023/10/09 04:36:56;;;;;;;14.93;2.97;;;;;;;;;;5025294;28;20487;-76
2023/10/09 04:47:49;;;;;;;15.40;2.95;;;;;;;;;;5046257;28;20117;-76
2023/10/09 04:57:46;;;;;;;15.68;2.25;;;;;;;;;;5048182;28;20415;-76
2023/10/09 05:02:57;;;;;;;7.72;3.00;;;;;;;;;;5041881;28;20032;-76
2023/10/09 05:11:15;;;;;;;16.05;2.10;;;;;;;;;;4974460;28;19929;-75
2023/10/09 05:16:28;;;;;;;11.32;2.28;;;;;;;;;;5042112;28;20037;-74
2023/10/09 05:19:06;;;;;;;13.30;2.17;;;;;;;;;;5041187;28;20037;-75
2023/10/09 05:21:44;;;;;;;10.00;3.35;;;;;;;;;;5043340;28;20037;-75
2023/10/09 05:35:07;;;;;;;12.68;2.35;;;;;;;;;;5043578;28;20056;-75
2023/10/09 05:37:34;;;;;;;24.02;2.83;;;;;;;;;;5043385;28;20417;-75
2023/10/09 05:42:42;;;;;;;19.65;3.25;;;;;;;;;;5041799;28;20535;-76
2023/10/09 06:03:48;;;;;;;12.93;3.30;;;;;;;;;;5043439;28;20045;-76
2023/10/09 06:11:38;;;;;;;13.25;2.55;;;;;;;;;;5044657;28;20037;-76
2023/10/09 06:14:04;;;;;;;18.13;3.05;;;;;;;;;;5041304;28;20410;-76
2023/10/09 06:16:41;;;;;;;8.90;2.72;;;;;;;;;;5029945;28;20045;-76
2023/10/09 06:19:12;;;;;;;17.80;2.72;;;;;;;;;;5035833;28;20087;-76
2023/10/09 06:24:19;;;;;;;19.02;3.08;;;;;;;;;;5035506;28;20038;-76
2023/10/09 06:29:36;;;;;;;11.75;3.30;;;;;;;;;;5038354;28;20036;-76
2023/10/09 06:35:15;;;;;;;9.45;3.92;;;;;;;;;;5032836;28;20080;-75
2023/10/09 06:43:14;;;;;;;16.05;2.72;;;;;;;;;;5029113;28;20107;-77
2023/10/09 06:45:53;;;;;;;23.05;3.13;;;;;;;;;;5036496;28;21535;-76
2023/10/09 06:59:04;;;;;;;16.13;3.08;;;;;;;;;;5031624;28;20049;-76
2023/10/09 07:01:42;;;;;;;14.02;3.17;;;;;;;;;;5021386;28;20048;-77
2023/10/09 07:06:57;;;;;;;13.63;3.70;;;;;;;;;;5035337;28;20118;-76
2023/10/09 07:09:23;;;;;;;15.55;2.70;;;;;;;;;;5034151;28;20032;-76
2023/10/09 07:17:01;;;;;;;17.55;2.95;;;;;;;;;;5031625;28;20037;-75
2023/10/09 07:22:02;;;;;;;20.98;2.50;;;;;;;;;;5037933;28;20041;-75
2023/10/09 07:24:37;;;;;;;7.10;2.40;;;;;;;;;;5037987;28;20048;-75
2023/10/09 07:27:12;;;;;;;15.77;2.92;;;;;;;;;;5021323;28;20029;-75
2023/10/09 07:29:47;;;;;;;13.00;2.78;;;;;;;;;;5045689;28;20021;-75
2023/10/09 07:32:19;;;;;;;15.90;2.78;;;;;;;;;;5040444;28;20037;-75
2023/10/09 07:34:54;;;;;;;22.25;2.60;;;;;;;;;;5025847;28;20103;-75
2023/10/09 07:37:34;;;;;;;21.90;3.15;;;;;;;;;;5042930;28;20041;-75
2023/10/09 07:40:06;;;;;;;16.85;2.85;;;;;;;;;;5040967;28;20075;-76
2023/10/09 07:42:43;;;;;;;16.58;2.55;;;;;;;;;;5043840;28;20029;-75
2023/10/09 07:48:05;;;;;;;12.63;2.70;;;;;;;;;;5041082;28;20484;-76
2023/10/09 07:50:40;;;;;;;14.27;2.70;;;;;;;;;;5045699;28;20045;-75
2023/10/09 07:53:25;;;;;;;15.38;2.85;;;;;;;;;;5042288;28;20151;-75
2023/10/09 07:55:54;;;;;;;17.65;2.70;;;;;;;;;;5041472;28;20044;-76
2023/10/09 07:58:27;;;;;;;19.42;2.45;;;;;;;;;;5042290;28;20048;-75
2023/10/09 08:01:15;;;;;;;16.10;2.70;;;;;;;;;;5039903;28;20467;-76
2023/10/09 08:03:45;;;;;;;12.40;2.58;;;;;;;;;;5025779;28;20044;-76
2023/10/09 08:17:13;;;;;;;11.82;3.13;;;;;;;;;;5036881;28;20041;-78
2023/10/09 08:20:11;;;;;;;20.92;3.15;;;;;;;;;;5023990;28;20037;-76
2023/10/09 08:24:56;;;;;;;15.60;2.72;;;;;;;;;;5043381;28;21974;-76
2023/10/09 08:30:28;;;;;;;20.60;3.72;;;;;;;;;;5037695;28;20642;-76
2023/10/09 08:33:02;;;;;;;12.85;2.70;;;;;;;;;;5022920;28;20079;-76
2023/10/09 08:35:35;;;;;;;13.90;2.65;;;;;;;;;;5039215;28;20124;-76
2023/10/09 08:38:07;;;;;;;14.85;3.05;;;;;;;;;;5041417;28;20038;-76
2023/10/09 08:40:39;;;;;;;15.90;2.35;;;;;;;;;;5041326;28;20040;-76
2023/10/09 08:43:24;;;;;;;18.65;3.35;;;;;;;;;;5023956;28;20037;-76
2023/10/09 08:46:00;;;;;;;25.92;3.20;;;;;;;;;;5041173;28;20095;-76
2023/10/09 08:48:27;;;;;;;18.20;3.70;;;;;;;;;;5031408;28;20152;-76
2023/10/09 08:50:54;;;;;;;12.68;2.75;;;;;;;;;;5023831;28;20469;-76
2023/10/09 08:53:20;;;;;;;20.60;3.70;;;;;;;;;;5023589;28;20051;-76
2023/10/09 08:55:46;;;;;;;23.63;2.85;;;;;;;;;;5040995;28;20037;-76
2023/10/09 08:58:20;;;;;;;35.63;4.18;;;;;;;;;;5039784;28;20033;-76
2023/10/09 09:00:46;;;;;;;;;;;;;;;;;;5042267;28;20025;-76
2023/10/09 09:03:16;;;;;;;14.35;2.70;;;;;;;;;;5040584;28;20291;-76
2023/10/09 09:05:49;;;;;;;14.88;3.42;;;;;;;;;;5042571;28;20049;-76
2023/10/09 09:08:25;;;;;;;19.70;3.53;;;;;;;;;;5040211;28;20103;-76
2023/10/09 09:10:58;;;;;;;12.60;2.92;;;;;;;;;;5043783;28;20029;-76
2023/10/09 09:13:24;;;;;;;17.65;4.40;;;;;;;;;;5043155;28;20083;-76
2023/10/09 09:15:53;;;;;;;13.65;2.72;;;;;;;;;;5020399;28;20118;-76
2023/10/09 09:18:18;;;;;;;17.95;2.80;;;;;;;;;;5037763;28;20021;-76
2023/10/09 09:20:46;;;;;;;11.88;3.03;;;;;;;;;;5043731;28;20012;-76
2023/10/09 09:23:13;;;;;;;16.33;2.90;;;;;;;;;;5041099;28;20030;-76
2023/10/09 09:25:47;;;;;;;15.00;2.67;;;;;;;;;;5037580;28;20033;-76
2023/10/09 09:28:19;;;;;;;19.92;2.90;;;;;;;;;;5021460;28;20068;-77
2023/10/09 09:30:50;;;;;;;17.10;2.75;;;;;;;;;;5039183;28;20030;-76
2023/10/09 09:33:39;;;;;;;22.65;3.25;;;;;;;;;;5038734;28;20016;-76
2023/10/09 09:36:06;;;;;;;9.88;2.75;;;;;;;;;;5036261;28;20473;-76
2023/10/09 09:38:42;;;;;;;13.27;3.22;;;;;;;;;;5044157;28;20017;-77
2023/10/09 09:41:08;;;;;;;10.52;2.92;;;;;;;;;;5039353;28;20041;-76
2023/10/09 09:43:40;;;;;;;16.02;3.10;;;;;;;;;;5019712;28;20045;-77
2023/10/09 09:46:08;;;;;;;16.80;3.28;;;;;;;;;;5032694;28;20075;-77
2023/10/09 09:48:47;;;;;;;21.65;3.60;;;;;;;;;;5035119;28;20035;-77
2023/10/09 09:51:13;;;;;;;13.40;2.72;;;;;;;;;;5032737;28;20049;-77
2023/10/09 09:53:40;;;;;;;14.13;2.70;;;;;;;;;;5020830;28;20022;-77
2023/10/09 09:56:06;;;;;;;20.90;3.50;;;;;;;;;;5040256;28;20409;-77
2023/10/09 09:58:41;;;;;;;20.95;3.47;;;;;;;;;;5029194;28;20045;-77
2023/10/09 10:01:16;;;;;;;7.13;2.38;;;;;;;;;;5022231;28;20049;-77
2023/10/09 10:03:46;;;;;;;15.45;3.22;;;;;;;;;;5034689;28;20052;-77
2023/10/09 10:06:12;;;;;;;17.92;3.47;;;;;;;;;;5038576;28;20121;-76
2023/10/09 10:08:40;;;;;;;14.38;3.17;;;;;;;;;;5036455;28;20070;-77
2023/10/09 10:11:06;;;;;;;27.85;3.35;;;;;;;;;;5034757;28;20634;-77
2023/10/09 10:13:40;;;;;;;10.70;2.90;;;;;;;;;;5038060;28;20048;-77
2023/10/09 10:16:19;;;;;;;15.15;3.33;;;;;;;;;;5031934;28;20076;-76
2023/10/09 10:21:40;;;;;;;11.70;3.25;;;;;;;;;;5041302;28;20044;-77
2023/10/09 10:24:30;;;;;;;17.75;3.03;;;;;;;;;;5038393;28;20485;-76
2023/10/09 10:27:18;;;;;;;17.65;2.75;;;;;;;;;;5037063;28;20531;-77
2023/10/09 10:29:50;;;;;;;19.35;2.72;;;;;;;;;;5037816;28;20041;-77
2023/10/09 10:32:18;;;;;;;17.83;3.35;;;;;;;;;;5029261;28;20040;-76
2023/10/09 10:34:47;;;;;;;15.95;3.25;;;;;;;;;;5036832;28;20100;-76
2023/10/09 10:37:13;;;;;;;10.60;3.05;;;;;;;;;;5038264;28;20037;-77
2023/10/09 10:39:50;;;;;;;34.05;5.10;;;;;;;;;;5040235;28;20426;-76
2023/10/09 10:42:33;;;;;;;22.45;3.42;;;;;;;;;;5042300;28;20544;-77
2023/10/09 10:45:02;;;;;;;22.77;3.03;;;;;;;;;;5043971;28;20033;-76
2023/10/09 10:47:34;;;;;;;10.30;3.35;;;;;;;;;;5040272;28;20421;-76
2023/10/09 10:50:35;;;;;;;11.85;2.72;;;;;;;;;;5038434;28;20033;-77
2023/10/09 10:53:14;;;;;;;17.17;3.13;;;;;;;;;;5044477;28;20116;-77
2023/10/09 10:58:24;;;;;;;26.35;4.80;;;;;;;;;;5040927;28;20036;-77
2023/10/09 11:06:36;;;;;;;23.85;3.75;;;;;;;;;;5041612;28;20095;-77
2023/10/09 11:09:09;;;;;;;16.27;3.33;;;;;;;;;;5039025;28;20029;-76
2023/10/09 11:11:46;;;;;;;15.63;3.57;;;;;;;;;;5039626;28;20447;-77
2023/10/09 11:14:15;;;;;;;16.92;2.60;;;;;;;;;;5042668;28;20562;-77
2023/10/09 11:16:41;;;;;;;15.00;3.65;;;;;;;;;;5038578;28;20513;-77
2023/10/09 11:19:28;;;;;;;16.50;3.97;;;;;;;;;;5041718;28;20033;-77
2023/10/09 11:24:34;;;;;;;24.15;3.05;;;;;;;;;;5039974;28;20033;-77
2023/10/09 11:27:06;;;;;;;21.02;3.13;;;;;;;;;;5041678;28;20539;-77
2023/10/09 11:32:22;;;;;;;11.82;3.38;;;;;;;;;;5038555;28;20040;-77
2023/10/09 11:35:08;;;;;;;19.08;3.22;;;;;;;;;;5042461;28;20358;-77
2023/10/09 11:37:42;;;;;;;13.57;2.58;;;;;;;;;;5042417;28;20090;-77
2023/10/09 11:40:30;;;;;;;17.75;2.58;;;;;;;;;;5040875;28;20036;-77
2023/10/09 11:42:59;;;;;;;16.85;2.95;;;;;;;;;;5038768;28;20026;-76
2023/10/09 11:45:29;;;;;;;18.55;2.70;;;;;;;;;;5043511;28;20047;-77
2023/10/09 11:48:00;;;;;;;12.77;3.15;;;;;;;;;;5041700;28;20032;-77
2023/10/09 11:50:43;;;;;;;23.50;2.55;;;;;;;;;;5036865;28;20076;-77
2023/10/09 11:53:09;;;;;;;16.70;2.65;;;;;;;;;;5040274;28;20029;-77
2023/10/09 11:55:36;;;;;;;17.17;2.85;;;;;;;;;;5019618;28;20682;-76
2023/10/09 11:58:04;;;;;;;13.82;2.67;;;;;;;;;;5034406;28;20083;-77
2023/10/09 12:00:32;;;;;;;11.38;2.85;;;;;;;;;;5035997;28;20052;-77
2023/10/09 12:03:04;;;;;;;12.77;3.53;;;;;;;;;;5037075;28;20032;-77
2023/10/09 12:05:31;;;;;;;18.92;2.95;;;;;;;;;;5041136;28;20177;-77
2023/10/09 12:07:57;;;;;;;16.98;3.15;;;;;;;;;;5043643;28;20044;-77
2023/10/09 12:10:26;;;;;;;14.65;3.00;;;;;;;;;;5041387;28;20360;-78
2023/10/09 12:12:52;;;;;;;12.68;2.35;;;;;;;;;;5038664;28;20032;-77
2023/10/09 12:15:19;;;;;;;17.27;2.88;;;;;;;;;;5041629;28;20025;-76
2023/10/09 12:17:46;;;;;;;16.85;2.80;;;;;;;;;;5021218;28;20028;-76
2023/10/09 12:20:31;;;;;;;19.45;3.03;;;;;;;;;;5025261;28;20033;-76
2023/10/09 12:22:58;;;;;;;17.40;2.30;;;;;;;;;;5042262;28;20409;-76
2023/10/09 12:25:24;;;;;;;8.77;2.83;;;;;;;;;;5038621;28;20110;-76
2023/10/09 12:27:49;;;;;;;10.80;2.72;;;;;;;;;;5041332;28;20108;-76
2023/10/09 12:30:15;;;;;;;19.27;3.03;;;;;;;;;;5040552;28;20345;-76
2023/10/09 12:32:40;;;;;;;11.52;2.65;;;;;;;;;;5039241;28;20048;-76
2023/10/09 12:35:17;;;;;;;13.35;2.92;;;;;;;;;;5027182;28;20037;-76
2023/10/09 12:37:42;;;;;;;14.77;2.92;;;;;;;;;;5024451;28;20551;-76
2023/10/09 12:40:10;;;;;;;28.75;3.17;;;;;;;;;;5045303;28;20057;-76
2023/10/09 12:42:36;;;;;;;25.67;3.90;;;;;;;;;;5037498;28;20505;-76
2023/10/09 12:45:08;;;;;;;18.25;3.03;;;;;;;;;;5041953;28;20037;-76
2023/10/09 12:47:33;;;;;;;10.02;3.03;;;;;;;;;;5032600;28;20037;-76
2023/10/09 12:49:59;;;;;;;17.45;3.28;;;;;;;;;;5033487;28;20041;-76
2023/10/09 12:52:29;;;;;;;16.90;2.80;;;;;;;;;;5017813;28;20049;-76
2023/10/09 12:54:55;;;;;;;22.27;3.05;;;;;;;;;;5024919;28;20513;-76
2023/10/09 12:57:20;;;;;;;10.48;2.60;;;;;;;;;;5043739;28;20029;-77
2023/10/09 12:59:48;;;;;;;21.85;2.92;;;;;;;;;;5046240;28;20023;-76
2023/10/09 13:02:28;;;;;;;17.05;2.70;;;;;;;;;;5020493;28;20029;-76
2023/10/09 13:05:00;;;;;;;15.98;2.78;;;;;;;;;;5027208;28;20419;-75
2023/10/09 13:07:25;;;;;;;13.18;2.78;;;;;;;;;;5034314;28;20034;-76
2023/10/09 13:10:09;;;;;;;21.80;3.50;;;;;;;;;;5024204;28;20535;-75
2023/10/09 13:12:40;;;;;;;13.68;3.40;;;;;;;;;;5031041;28;20461;-75
2023/10/09 13:15:10;;;;;;;14.25;3.25;;;;;;;;;;5044193;28;20025;-75
2023/10/09 13:17:36;;;;;;;14.80;3.50;;;;;;;;;;5032224;28;20040;-75
2023/10/09 13:20:04;;;;;;;15.85;2.50;;;;;;;;;;5033386;28;20084;-77
2023/10/09 13:22:30;;;;;;;18.38;2.75;;;;;;;;;;5018842;28;20487;-77
2023/10/09 13:25:03;;;;;;;10.52;2.45;;;;;;;;;;5031412;28;20046;-76
2023/10/09 13:27:33;;;;;;;11.90;3.00;;;;;;;;;;5031033;28;20038;-76
2023/10/09 13:30:05;;;;;;;24.98;3.15;;;;;;;;;;5038713;28;20117;-77
2023/10/09 13:32:35;;;;;;;14.15;3.03;;;;;;;;;;5033711;28;20082;-77
2023/10/09 13:35:04;;;;;;;21.52;2.83;;;;;;;;;;5015407;28;20045;-77
2023/10/09 13:37:31;;;;;;;30.02;2.78;;;;;;;;;;5031920;28;20045;-77
2023/10/09 13:39:57;;;;;;;10.60;2.60;;;;;;;;;;5015072;28;20049;-77
2023/10/09 13:42:26;;;;;;;13.45;2.95;;;;;;;;;;5039525;28;20216;-77
2023/10/09 13:44:53;;;;;;;16.33;3.15;;;;;;;;;;5031873;28;20104;-77
2023/10/09 13:47:20;;;;;;;21.08;3.08;;;;;;;;;;5037760;28;20032;-77
2023/10/09 13:49:53;;;;;;;10.18;2.38;;;;;;;;;;5040730;28;20033;-77
2023/10/09 13:52:19;;;;;;;18.30;3.17;;;;;;;;;;5021448;28;20033;-76
2023/10/09 13:54:48;;;;;;;17.40;3.55;;;;;;;;;;5036980;28;20057;-76
2023/10/09 13:57:15;;;;;;;13.13;3.08;;;;;;;;;;5017912;28;20021;-77
2023/10/09 13:59:49;;;;;;;18.65;3.63;;;;;;;;;;5022653;28;20400;-77
2023/10/09 14:02:17;;;;;;;12.60;2.65;;;;;;;;;;5033691;28;20056;-76
2023/10/09 14:04:43;;;;;;;13.35;2.67;;;;;;;;;;5034035;28;20308;-77
2023/10/09 14:07:09;;;;;;;17.20;2.65;;;;;;;;;;5033972;28;20125;-77
2023/10/09 14:12:10;;;;;;;11.95;2.70;;;;;;;;;;5033363;28;20396;-77
2023/10/09 14:14:48;;;;;;;15.55;3.33;;;;;;;;;;5035457;28;20362;-76
2023/10/09 14:17:23;;;;;;;17.98;2.97;;;;;;;;;;5034250;28;20034;-77
2023/10/09 14:19:49;;;;;;;14.30;2.60;;;;;;;;;;5036041;28;20048;-77
2023/10/09 14:22:16;;;;;;;14.30;3.22;;;;;;;;;;5032635;28;20120;-76
2023/10/09 14:24:45;;;;;;;17.73;3.33;;;;;;;;;;5031819;28;20055;-77
2023/10/09 14:27:17;;;;;;;12.43;2.97;;;;;;;;;;5033819;28;20104;-76
2023/10/09 14:29:44;;;;;;;19.02;3.17;;;;;;;;;;5032977;28;20072;-76
2023/10/09 14:32:12;;;;;;;28.42;3.92;;;;;;;;;;5032899;28;20037;-77
2023/10/09 14:34:42;;;;;;;20.95;3.50;;;;;;;;;;5033788;28;20043;-77
2023/10/09 14:37:11;;;;;;;15.77;3.83;;;;;;;;;;5032758;28;20303;-76
2023/10/09 14:39:40;;;;;;;13.73;3.03;;;;;;;;;;5020828;28;20037;-77
2023/10/09 14:42:09;;;;;;;15.40;3.15;;;;;;;;;;5040134;28;20029;-76
2023/10/09 14:44:38;;;;;;;14.55;2.72;;;;;;;;;;5039464;28;20487;-77
2023/10/09 14:47:05;;;;;;;12.68;2.50;;;;;;;;;;5035626;28;20061;-77
2023/10/09 14:49:34;;;;;;;22.23;3.90;;;;;;;;;;5036006;28;20348;-76
2023/10/09 14:52:00;;;;;;;18.85;3.65;;;;;;;;;;5029231;28;20061;-76
2023/10/09 14:54:27;;;;;;;21.33;3.25;;;;;;;;;;5036164;28;20143;-76
2023/10/09 14:56:54;;;;;;;13.43;2.97;;;;;;;;;;5037110;28;20067;-76
2023/10/09 14:59:22;;;;;;;15.60;3.00;;;;;;;;;;5019219;28;20057;-76
2023/10/09 15:01:48;;;;;;;17.95;3.10;;;;;;;;;;5038312;28;20119;-77
2023/10/09 15:04:14;;;;;;;13.13;2.63;;;;;;;;;;5037078;28;20532;-77
2023/10/09 15:06:40;;;;;;;12.57;3.67;;;;;;;;;;5036030;28;20508;-77
2023/10/09 15:09:09;;;;;;;16.38;3.15;;;;;;;;;;5036733;28;20044;-76
2023/10/09 15:11:37;;;;;;;18.65;3.17;;;;;;;;;;5030561;28;20364;-76
2023/10/09 15:14:04;;;;;;;11.45;2.67;;;;;;;;;;5035360;28;20164;-76
2023/10/09 15:16:30;;;;;;;21.77;3.35;;;;;;;;;;5030748;28;20460;-76
2023/10/09 15:18:57;;;;;;;12.90;2.65;;;;;;;;;;5037159;28;20184;-76
2023/10/09 15:21:26;;;;;;;12.82;2.35;;;;;;;;;;5038964;28;20033;-76
2023/10/09 15:23:55;;;;;;;16.30;3.42;;;;;;;;;;5039386;28;20016;-77
2023/10/09 15:26:21;;;;;;;15.82;3.28;;;;;;;;;;5019584;28;20044;-77
2023/10/09 15:28:49;;;;;;;21.85;3.08;;;;;;;;;;5033921;28;20041;-77
2023/10/09 15:31:16;;;;;;;14.23;2.80;;;;;;;;;;5036619;28;20053;-78
2023/10/09 15:33:42;;;;;;;20.23;3.13;;;;;;;;;;5026453;28;20544;-78
2023/10/09 15:36:20;;;;;;;25.13;3.28;;;;;;;;;;5036201;28;20083;-78
2023/10/09 15:38:46;;;;;;;13.65;3.10;;;;;;;;;;5036125;28;20056;-76
2023/10/09 15:41:11;;;;;;;14.73;3.13;;;;;;;;;;5017831;28;20045;-77
2023/10/09 15:43:37;;;;;;;21.75;3.03;;;;;;;;;;5032873;28;20033;-76
2023/10/09 15:46:03;;;;;;;13.25;2.90;;;;;;;;;;5031975;28;20042;-76
2023/10/09 15:48:28;;;;;;;13.05;3.00;;;;;;;;;;5033223;28;20029;-76
2023/10/09 15:50:54;;;;;;;18.63;3.53;;;;;;;;;;5032680;28;20042;-76
2023/10/09 15:53:19;;;;;;;20.25;4.25;;;;;;;;;;5014408;28;20041;-76
2023/10/09 15:55:45;;;;;;;17.75;3.03;;;;;;;;;;5032373;28;20034;-76
2023/10/09 15:58:11;;;;;;;20.70;3.25;;;;;;;;;;5032451;28;20444;-78
2023/10/09 16:00:37;;;;;;;23.23;3.85;;;;;;;;;;5033129;28;20099;-75
2023/10/09 16:03:04;;;;;;;16.27;2.92;;;;;;;;;;5029961;28;20025;-77
2023/10/09 16:05:30;;;;;;;19.88;3.50;;;;;;;;;;5014696;28;20033;-78
2023/10/09 16:07:57;;;;;;;21.02;3.28;;;;;;;;;;5035212;28;20090;-77
2023/10/09 16:10:23;;;;;;;14.55;3.88;;;;;;;;;;5017150;28;20116;-77
2023/10/09 16:12:51;;;;;;;19.00;3.35;;;;;;;;;;5034825;28;20457;-78
2023/10/09 16:15:17;;;;;;;19.55;3.80;;;;;;;;;;5038259;28;20109;-78
2023/10/09 16:17:47;;;;;;;12.98;2.50;;;;;;;;;;5040255;28;20027;-78
2023/10/09 16:20:13;;;;;;;12.20;2.72;;;;;;;;;;5020396;28;20033;-77
2023/10/09 16:22:45;;;;;;;19.90;3.78;;;;;;;;;;5035973;28;20454;-77
2023/10/09 16:25:11;;;;;;;17.13;3.28;;;;;;;;;;5036234;28;20042;-77
2023/10/09 16:27:39;;;;;;;7.55;2.38;;;;;;;;;;5018590;28;20033;-77
2023/10/09 16:30:05;;;;;;;17.17;2.85;;;;;;;;;;5037117;28;20025;-79
2023/10/09 16:32:32;;;;;;;16.10;3.03;;;;;;;;;;5021247;28;20029;-77
2023/10/09 16:35:00;;;;;;;19.08;3.42;;;;;;;;;;5039556;28;20041;-77
2023/10/09 16:37:25;;;;;;;16.85;3.08;;;;;;;;;;5020670;28;20453;-79
2023/10/09 16:39:54;;;;;;;15.80;3.30;;;;;;;;;;5034835;28;20029;-77
2023/10/09 16:42:24;;;;;;;20.83;4.05;;;;;;;;;;5033339;28;20465;-77
2023/10/09 16:44:50;;;;;;;24.27;2.90;;;;;;;;;;5034875;28;20125;-76
2023/10/09 16:47:16;;;;;;;21.02;3.00;;;;;;;;;;5036640;28;20040;-76
2023/10/09 16:49:42;;;;;;;14.10;2.90;;;;;;;;;;5036413;28;20128;-77
2023/10/09 16:52:11;;;;;;;26.08;3.85;;;;;;;;;;5019010;28;20104;-76
2023/10/09 16:54:37;;;;;;;19.67;3.83;;;;;;;;;;5018836;28;20033;-76
2023/10/09 16:57:04;;;;;;;30.58;4.78;;;;;;;;;;5036359;28;20029;-76
2023/10/09 16:59:33;;;;;;;10.70;2.47;;;;;;;;;;5018842;28;20036;-77
2023/10/09 17:01:59;;;;;;;15.10;2.70;;;;;;;;;;5036596;28;20033;-76
2023/10/09 17:04:26;;;;;;;10.35;2.88;;;;;;;;;;5051595;28;20567;-77
2023/10/09 17:06:55;;;;;;;12.43;2.97;;;;;;;;;;5036135;28;20033;-75
2023/10/09 17:09:20;;;;;;;12.43;2.90;;;;;;;;;;5051222;28;20032;-76
2023/10/09 17:11:51;;;;;;;14.80;2.95;;;;;;;;;;5018434;28;20025;-77
2023/10/09 17:14:25;;;;;;;15.15;3.17;;;;;;;;;;5051723;28;20034;-77
2023/10/09 17:16:52;;;;;;;27.75;3.22;;;;;;;;;;5035767;28;20041;-77
2023/10/09 17:19:17;;;;;;;16.02;2.75;;;;;;;;;;5035848;28;20405;-77
2023/10/09 17:21:42;;;;;;;16.60;3.45;;;;;;;;;;5037129;28;20033;-78
2023/10/09 17:24:10;;;;;;;21.02;3.38;;;;;;;;;;5019401;28;20037;-77
2023/10/09 17:26:38;;;;;;;6.85;2.85;;;;;;;;;;5038048;28;20017;-78
2023/10/09 17:29:04;;;;;;;22.92;3.28;;;;;;;;;;5039138;28;20065;-77